createdAt,value
2022-11-29T00:01:10.640Z,2.05
2022-11-29T00:04:06.384Z,1.59
2022-11-29T00:06:54.588Z,1.21
2022-11-29T00:09:37.432Z,1.75
2022-11-29T00:12:32.605Z,5.20
2022-11-29T00:15:21.468Z,7.40
2022-11-29T00:17:56.615Z,7.00
2022-11-29T00:20:45.441Z,5.27
2022-11-29T00:23:20.571Z,3.98
2022-11-29T00:26:13.447Z,3.11
2022-11-29T00:28:55.438Z,2.44
2022-11-29T00:31:50.373Z,1.87
2022-11-29T00:34:38.399Z,1.82
2022-11-29T00:37:12.638Z,4.72
2022-11-29T00:40:00.393Z,7.00
2022-11-29T00:42:41.433Z,7.59
2022-11-29T00:45:29.426Z,6.03
2022-11-29T00:48:03.576Z,4.50
2022-11-29T00:50:51.429Z,3.46
2022-11-29T00:53:33.423Z,2.66
2022-11-29T00:56:21.412Z,2.05
2022-11-29T00:58:56.611Z,2.91
2022-11-29T01:01:44.601Z,5.94
2022-11-29T01:04:25.562Z,7.73
2022-11-29T01:07:06.450Z,7.20
2022-11-29T01:09:56.422Z,5.33
2022-11-29T01:12:30.874Z,4.05
2022-11-29T01:15:20.429Z,3.17
2022-11-29T01:18:01.440Z,2.55
2022-11-29T01:20:56.429Z,2.03
2022-11-29T01:23:45.413Z,2.72
2022-11-29T01:26:22.567Z,5.94
2022-11-29T01:29:10.408Z,7.42
2022-11-29T01:31:45.614Z,6.11
2022-11-29T01:34:26.610Z,4.58
2022-11-29T01:37:08.635Z,3.49
2022-11-29T01:39:51.344Z,2.68
2022-11-29T01:42:32.606Z,2.11
2022-11-29T01:45:31.411Z,1.66
2022-11-29T01:48:06.548Z,1.28
2022-11-29T01:50:55.376Z,1.76
2022-11-29T01:53:29.975Z,5.10
2022-11-29T01:56:19.420Z,7.35
2022-11-29T01:58:53.819Z,7.38
2022-11-29T02:01:42.498Z,5.68
2022-11-29T02:04:18.943Z,4.25
2022-11-29T02:07:06.363Z,3.32
2022-11-29T02:09:47.433Z,2.64
2022-11-29T02:12:58.412Z,2.12
2022-11-29T02:16:32.366Z,2.16
2022-11-29T02:20:07.404Z,6.09
2022-11-29T02:23:07.417Z,7.73
2022-11-29T02:26:37.394Z,6.02
2022-11-29T02:29:30.558Z,4.30
2022-11-29T02:32:49.409Z,3.30
2022-11-29T02:35:50.571Z,2.55
2022-11-29T02:38:53.404Z,1.99
2022-11-29T02:41:43.549Z,1.89
2022-11-29T02:44:52.406Z,5.03
2022-11-29T02:48:06.391Z,7.59
2022-11-29T02:51:21.470Z,7.02
2022-11-29T02:54:35.579Z,5.08
2022-11-29T02:57:46.404Z,3.65
2022-11-29T03:00:29.600Z,2.81
2022-11-29T03:03:19.409Z,2.31
2022-11-29T03:06:09.537Z,2.03
2022-11-29T03:09:01.412Z,4.56
2022-11-29T03:12:37.393Z,7.40
2022-11-29T03:15:38.399Z,7.27
2022-11-29T03:18:51.392Z,5.35
2022-11-29T03:21:55.390Z,4.06
2022-11-29T03:25:19.388Z,3.16
2022-11-29T03:28:06.450Z,2.53
2022-11-29T03:30:58.426Z,2.10
2022-11-29T03:33:53.491Z,1.78
2022-11-29T03:37:28.584Z,2.55
2022-11-29T03:40:20.379Z,6.65
2022-11-29T03:43:11.523Z,7.82
2022-11-29T03:46:05.433Z,6.29
2022-11-29T03:48:52.384Z,4.86
2022-11-29T03:52:00.387Z,3.89
2022-11-29T03:54:54.595Z,3.23
2022-11-29T03:58:04.334Z,2.78
2022-11-29T04:01:02.388Z,3.30
2022-11-29T04:04:06.384Z,6.75
2022-11-29T04:07:05.735Z,8.33
2022-11-29T04:10:20.400Z,6.87
2022-11-29T04:13:08.504Z,5.25
2022-11-29T04:16:09.911Z,4.26
2022-11-29T04:19:05.506Z,3.53
2022-11-29T04:22:28.381Z,2.97
2022-11-29T04:25:21.508Z,2.47
2022-11-29T04:28:43.539Z,2.82
2022-11-29T04:31:47.378Z,6.61
2022-11-29T04:35:06.371Z,8.05
2022-11-29T04:37:57.363Z,6.28
2022-11-29T04:40:44.633Z,4.97
2022-11-29T04:43:52.570Z,4.06
2022-11-29T04:46:38.812Z,3.39
2022-11-29T04:49:48.401Z,2.89
2022-11-29T04:52:42.391Z,2.46
2022-11-29T04:55:45.425Z,2.12
2022-11-29T04:58:28.506Z,1.80
2022-11-29T05:01:37.444Z,2.60
2022-11-29T05:04:17.660Z,6.35
2022-11-29T05:07:29.412Z,8.31
2022-11-29T05:10:25.548Z,7.61
2022-11-29T05:13:33.379Z,5.81
2022-11-29T05:16:23.395Z,4.62
2022-11-29T05:19:44.377Z,3.84
2022-11-29T05:22:54.370Z,3.18
2022-11-29T05:25:53.370Z,2.71
2022-11-29T05:28:37.555Z,2.31
2022-11-29T05:31:52.381Z,1.98
2022-11-29T05:34:42.508Z,3.20
2022-11-29T05:37:30.356Z,6.75
2022-11-29T05:40:20.504Z,7.91
2022-11-29T05:43:33.353Z,6.40
2022-11-29T05:46:19.576Z,4.82
2022-11-29T05:49:22.361Z,3.90
2022-11-29T05:52:20.717Z,3.22
2022-11-29T05:55:20.425Z,2.67
2022-11-29T05:58:11.382Z,2.24
2022-11-29T06:00:57.867Z,1.88
2022-11-29T06:04:24.570Z,2.56
2022-11-29T06:07:14.428Z,6.54
2022-11-29T06:10:34.555Z,8.31
2022-11-29T06:13:22.527Z,7.56
2022-11-29T06:16:32.390Z,5.86
2022-11-29T06:19:43.800Z,4.57
2022-11-29T06:23:02.334Z,3.63
2022-11-29T06:25:55.675Z,3.00
2022-11-29T06:28:54.533Z,2.56
2022-11-29T06:31:46.387Z,2.21
2022-11-29T06:34:50.492Z,1.94
2022-11-29T06:37:40.371Z,4.02
2022-11-29T06:40:23.472Z,7.23
2022-11-29T06:43:04.332Z,8.14
2022-11-29T06:45:49.500Z,6.73
2022-11-29T06:48:33.340Z,5.39
2022-11-29T06:51:34.354Z,4.40
2022-11-29T06:54:43.687Z,3.72
2022-11-29T06:58:04.349Z,3.18
2022-11-29T07:01:11.434Z,2.76
2022-11-29T07:03:58.493Z,2.44
2022-11-29T07:06:47.343Z,2.16
2022-11-29T07:09:26.486Z,1.95
2022-11-29T07:12:14.344Z,2.53
2022-11-29T07:14:49.530Z,5.92
2022-11-29T07:17:46.341Z,8.14
2022-11-29T07:20:57.464Z,7.43
2022-11-29T07:23:50.539Z,5.62
2022-11-29T07:26:31.672Z,4.60
2022-11-29T07:29:29.546Z,3.94
2022-11-29T07:32:10.688Z,3.45
2022-11-29T07:35:16.565Z,3.05
2022-11-29T07:38:13.477Z,2.68
2022-11-29T07:41:14.340Z,3.58
2022-11-29T07:44:18.516Z,7.06
2022-11-29T07:47:06.376Z,8.20
2022-11-29T07:49:41.485Z,6.83
2022-11-29T07:52:29.337Z,5.59
2022-11-29T07:55:05.255Z,4.74
2022-11-29T07:57:55.345Z,4.14
2022-11-29T08:00:37.404Z,3.71
2022-11-29T08:03:32.528Z,3.37
2022-11-29T08:06:20.517Z,3.04
2022-11-29T08:09:12.530Z,2.78
2022-11-29T08:11:49.276Z,2.56
2022-11-29T08:14:38.349Z,2.36
2022-11-29T08:17:19.340Z,2.93
2022-11-29T08:20:07.335Z,6.43
2022-11-29T08:23:14.336Z,8.81
2022-11-29T08:26:15.333Z,8.39
2022-11-29T08:29:04.335Z,6.75
2022-11-29T08:31:39.501Z,5.76
2022-11-29T08:34:29.337Z,5.10
2022-11-29T08:37:04.514Z,4.64
2022-11-29T08:39:52.523Z,4.29
2022-11-29T08:42:33.516Z,3.97
2022-11-29T08:45:16.318Z,3.74
2022-11-29T08:47:57.532Z,3.50
2022-11-29T08:50:38.514Z,3.30
2022-11-29T08:53:39.487Z,3.10
2022-11-29T08:57:16.610Z,2.91
2022-11-29T08:59:27.402Z,2.75
2022-11-29T09:02:08.359Z,3.46
2022-11-29T09:04:56.272Z,7.04
2022-11-29T09:07:30.791Z,8.82
2022-11-29T09:10:20.318Z,7.71
2022-11-29T09:13:02.328Z,6.37
2022-11-29T09:15:52.326Z,5.44
2022-11-29T09:18:28.954Z,4.91
2022-11-29T09:21:27.338Z,4.55
2022-11-29T09:24:22.342Z,4.17
2022-11-29T09:27:10.321Z,3.88
2022-11-29T09:29:52.036Z,3.65
2022-11-29T09:32:35.323Z,3.56
2022-11-29T09:35:16.457Z,6.25
2022-11-29T09:37:57.308Z,8.98
2022-11-29T09:40:44.457Z,9.10
2022-11-29T09:43:37.300Z,7.61
2022-11-29T09:46:59.341Z,6.37
2022-11-29T09:49:52.641Z,5.52
2022-11-29T09:53:11.307Z,4.98
2022-11-29T09:56:23.856Z,4.58
2022-11-29T09:59:19.511Z,4.19
2022-11-29T10:02:06.308Z,3.89
2022-11-29T10:04:59.266Z,3.71
2022-11-29T10:07:36.081Z,3.52
2022-11-29T10:10:48.294Z,3.56
2022-11-29T10:13:29.895Z,6.86
2022-11-29T10:16:28.340Z,9.33
2022-11-29T10:19:21.567Z,9.09
2022-11-29T10:22:28.296Z,7.50
2022-11-29T10:25:24.349Z,6.43
2022-11-29T10:27:59.437Z,5.83
2022-11-29T10:30:48.318Z,5.38
2022-11-29T10:33:37.755Z,4.99
2022-11-29T10:36:25.313Z,4.65
2022-11-29T10:39:18.247Z,4.34
2022-11-29T10:41:56.707Z,4.13
2022-11-29T10:44:46.598Z,3.90
2022-11-29T10:47:28.304Z,3.73
2022-11-29T10:50:17.306Z,4.56
2022-11-29T10:53:00.343Z,8.01
2022-11-29T10:56:00.129Z,9.88
2022-11-29T10:58:42.291Z,8.85
2022-11-29T11:01:23.644Z,7.46
2022-11-29T11:04:07.299Z,6.55
2022-11-29T11:07:03.701Z,5.81
2022-11-29T11:09:49.309Z,5.27
2022-11-29T11:12:34.503Z,4.84
2022-11-29T11:15:34.285Z,4.51
2022-11-29T11:18:31.042Z,4.20
2022-11-29T11:21:17.279Z,4.00
2022-11-29T11:24:07.434Z,3.88
2022-11-29T11:26:55.280Z,5.44
2022-11-29T11:29:43.438Z,8.69
2022-11-29T11:32:31.330Z,9.79
2022-11-29T11:35:18.387Z,8.51
2022-11-29T11:38:13.490Z,7.13
2022-11-29T11:41:09.276Z,6.20
2022-11-29T11:43:44.461Z,5.66
2022-11-29T11:46:55.342Z,5.25
2022-11-29T11:49:37.426Z,4.85
2022-11-29T11:52:44.880Z,4.57
2022-11-29T11:55:29.544Z,4.26
2022-11-29T11:58:23.283Z,4.02
2022-11-29T12:01:07.436Z,4.11
2022-11-29T12:04:03.372Z,7.10
2022-11-29T12:06:44.422Z,9.53
2022-11-29T12:09:44.961Z,9.31
2022-11-29T12:12:28.431Z,7.65
2022-11-29T12:15:34.553Z,6.50
2022-11-29T12:18:25.434Z,5.64
2022-11-29T12:21:20.268Z,5.10
2022-11-29T12:24:26.475Z,4.57
2022-11-29T12:27:11.662Z,4.18
2022-11-29T12:30:06.423Z,3.90
2022-11-29T12:33:09.278Z,3.64
2022-11-29T12:35:52.544Z,3.40
2022-11-29T12:39:01.269Z,4.21
2022-11-29T12:41:43.733Z,7.89
2022-11-29T12:44:35.473Z,9.21
2022-11-29T12:50:29.393Z,6.30
2022-11-29T12:53:41.657Z,5.45
2022-11-29T12:56:33.382Z,4.78
2022-11-29T12:59:26.270Z,4.34
2022-11-29T13:02:45.593Z,3.98
2022-11-29T13:05:52.431Z,3.65
2022-11-29T13:08:45.557Z,3.37
2022-11-29T13:11:43.260Z,4.25
2022-11-29T13:14:43.716Z,7.73
2022-11-29T13:17:42.274Z,9.61
2022-11-29T13:20:54.331Z,8.39
2022-11-29T13:24:23.222Z,6.62
2022-11-29T13:26:59.445Z,5.44
2022-11-29T13:29:47.304Z,4.75
2022-11-29T13:32:47.362Z,4.23
2022-11-29T13:35:56.414Z,3.73
2022-11-29T13:38:44.269Z,3.35
2022-11-29T13:41:45.265Z,3.50
2022-11-29T13:45:10.252Z,6.96
2022-11-29T13:48:06.407Z,9.27
2022-11-29T13:50:54.257Z,8.15
2022-11-29T13:53:31.422Z,6.71
2022-11-29T13:56:32.479Z,5.70
2022-11-29T13:59:07.433Z,4.95
2022-11-29T14:01:58.521Z,4.40
2022-11-29T14:04:38.392Z,3.96
2022-11-29T14:07:27.289Z,3.58
2022-11-29T14:10:28.989Z,3.25
2022-11-29T14:13:21.271Z,4.56
2022-11-29T14:16:05.445Z,7.65
2022-11-29T14:19:11.278Z,9.38
2022-11-29T14:22:16.557Z,9.09
2022-11-29T14:25:27.853Z,7.22
2022-11-29T14:28:32.261Z,5.90
2022-11-29T14:31:58.952Z,5.00
2022-11-29T14:34:38.451Z,4.32
2022-11-29T14:37:41.146Z,3.88
2022-11-29T14:40:37.211Z,3.44
2022-11-29T14:43:18.600Z,4.43
2022-11-29T14:46:29.243Z,7.55
2022-11-29T14:49:12.443Z,9.53
2022-11-29T14:52:31.451Z,9.12
2022-11-29T14:55:37.238Z,7.18
2022-11-29T14:58:27.411Z,5.77
2022-11-29T15:01:11.191Z,4.97
2022-11-29T15:03:55.424Z,4.34
2022-11-29T15:06:44.044Z,3.87
2022-11-29T15:09:29.376Z,3.41
2022-11-29T15:12:16.301Z,3.08
2022-11-29T15:15:14.241Z,3.68
2022-11-29T15:18:03.070Z,7.13
2022-11-29T15:21:12.472Z,9.09
2022-11-29T15:24:20.585Z,9.32
2022-11-29T15:27:11.240Z,7.30
2022-11-29T15:29:49.381Z,6.00
2022-11-29T15:32:39.365Z,5.14
2022-11-29T15:35:24.368Z,4.44
2022-11-29T15:38:12.246Z,3.89
2022-11-29T15:40:55.468Z,3.48
2022-11-29T15:43:44.253Z,4.75
2022-11-29T15:46:27.083Z,7.71
2022-11-29T15:49:34.279Z,9.32
2022-11-29T15:52:20.184Z,8.55
2022-11-29T15:55:12.293Z,6.86
2022-11-29T15:57:50.384Z,5.70
2022-11-29T16:00:40.288Z,4.91
2022-11-29T16:03:31.390Z,4.28
2022-11-29T16:06:36.225Z,3.76
2022-11-29T16:09:11.553Z,4.55
2022-11-29T16:11:59.398Z,7.58
2022-11-29T16:14:34.357Z,8.99
2022-11-29T16:17:22.222Z,7.72
2022-11-29T16:19:58.649Z,6.32
2022-11-29T16:22:46.227Z,5.31
2022-11-29T16:25:28.084Z,4.59
2022-11-29T16:28:19.355Z,4.05
2022-11-29T16:30:54.495Z,3.66
2022-11-29T16:33:45.399Z,3.96
2022-11-29T16:36:30.544Z,7.10
2022-11-29T16:39:29.222Z,8.86
2022-11-29T16:42:32.802Z,7.51
2022-11-29T16:45:43.272Z,5.83
2022-11-29T16:48:30.389Z,4.82
2022-11-29T16:51:20.207Z,4.19
2022-11-29T16:53:57.386Z,3.75
2022-11-29T16:56:45.225Z,3.39
2022-11-29T16:59:26.797Z,3.06
2022-11-29T17:02:20.528Z,4.10
2022-11-29T17:05:05.558Z,7.40
2022-11-29T17:08:00.400Z,9.16
2022-11-29T17:10:48.225Z,8.19
2022-11-29T17:13:23.485Z,6.64
2022-11-29T17:16:11.270Z,5.54
2022-11-29T17:19:01.212Z,4.73
2022-11-29T17:21:50.246Z,4.16
2022-11-29T17:24:44.911Z,3.69
2022-11-29T17:27:23.531Z,3.29
2022-11-29T17:30:14.339Z,3.93
2022-11-29T17:32:50.457Z,7.21
2022-11-29T17:35:38.216Z,8.78
2022-11-29T17:38:13.302Z,7.57
2022-11-29T17:41:01.247Z,6.19
2022-11-29T17:43:36.727Z,5.17
2022-11-29T17:46:33.493Z,4.38
2022-11-29T17:49:12.727Z,3.75
2022-11-29T17:52:02.233Z,3.30
2022-11-29T17:54:37.364Z,3.12
2022-11-29T17:57:26.212Z,5.59
2022-11-29T18:00:08.449Z,8.34
2022-11-29T18:02:57.420Z,8.76
2022-11-29T18:05:39.318Z,7.19
2022-11-29T18:08:36.410Z,5.84
2022-11-29T18:11:48.171Z,4.90
2022-11-29T18:14:32.051Z,4.10
2022-11-29T18:17:21.973Z,3.56
2022-11-29T18:19:59.255Z,3.14
2022-11-29T18:22:54.219Z,3.77
2022-11-29T18:25:51.189Z,7.09
2022-11-29T18:28:42.386Z,8.51
2022-11-29T18:31:22.040Z,7.12
2022-11-29T18:34:06.417Z,5.76
2022-11-29T18:36:53.530Z,4.91
2022-11-29T18:39:36.213Z,4.23
2022-11-29T18:42:24.647Z,3.75
2022-11-29T18:45:36.294Z,3.29
2022-11-29T18:48:17.176Z,2.95
2022-11-29T18:51:02.997Z,3.60
2022-11-29T18:53:46.407Z,6.74
2022-11-29T18:56:31.284Z,8.79
2022-11-29T18:59:19.190Z,8.32
2022-11-29T19:02:08.235Z,6.63
2022-11-29T19:04:45.222Z,5.48
2022-11-29T19:07:33.274Z,4.68
2022-11-29T19:10:10.863Z,4.08
2022-11-29T19:13:02.217Z,3.55
2022-11-29T19:15:36.897Z,3.12
2022-11-29T19:18:28.313Z,2.75
2022-11-29T19:21:14.422Z,3.34
2022-11-29T19:24:22.130Z,6.82
2022-11-29T19:27:03.183Z,8.58
2022-11-29T19:29:45.636Z,7.26
2022-11-29T19:32:27.299Z,5.89
2022-11-29T19:35:08.328Z,4.91
2022-11-29T19:37:52.749Z,4.28
2022-11-29T19:40:34.351Z,3.73
2022-11-29T19:43:15.185Z,3.28
2022-11-29T19:45:56.461Z,2.87
2022-11-29T19:48:38.390Z,3.29
2022-11-29T19:51:22.346Z,6.57
2022-11-29T19:54:06.186Z,8.52
2022-11-29T19:56:54.185Z,8.02
2022-11-29T19:59:28.625Z,6.41
2022-11-29T20:02:16.937Z,5.18
2022-11-29T20:04:52.579Z,4.34
2022-11-29T20:07:42.317Z,3.76
2022-11-29T20:10:40.755Z,3.33
2022-11-29T20:13:29.196Z,2.99
2022-11-29T20:16:18.180Z,2.76
2022-11-29T20:19:14.180Z,2.49
2022-11-29T20:22:02.927Z,3.46
2022-11-29T20:24:42.618Z,6.81
2022-11-29T20:27:37.288Z,8.74
2022-11-29T20:30:28.187Z,7.99
2022-11-29T20:33:09.167Z,6.35
2022-11-29T20:35:58.169Z,5.11
2022-11-29T20:38:43.684Z,4.29
2022-11-29T20:41:42.171Z,3.70
2022-11-29T20:44:21.417Z,3.26
2022-11-29T20:47:10.294Z,2.91
2022-11-29T20:49:45.064Z,3.06
2022-11-29T20:53:07.187Z,5.93
2022-11-29T20:55:48.457Z,8.52
2022-11-29T20:58:29.934Z,8.60
2022-11-29T21:01:19.181Z,6.87
2022-11-29T21:03:54.358Z,5.53
2022-11-29T21:06:48.400Z,4.62
2022-11-29T21:09:23.328Z,3.96
2022-11-29T21:12:11.156Z,3.48
2022-11-29T21:14:53.105Z,3.09
2022-11-29T21:17:48.173Z,2.75
2022-11-29T21:20:36.141Z,2.42
2022-11-29T21:23:14.257Z,2.90
2022-11-29T21:26:24.187Z,6.14
2022-11-29T21:29:33.175Z,8.54
2022-11-29T21:32:34.150Z,7.98
2022-11-29T21:35:25.116Z,6.06
2022-11-29T21:38:02.916Z,4.92
2022-11-29T21:40:51.177Z,4.15
2022-11-29T21:43:57.830Z,3.58
2022-11-29T21:46:35.240Z,3.04
2022-11-29T21:49:23.178Z,2.64
2022-11-29T21:52:08.273Z,3.40
2022-11-29T21:54:50.473Z,6.78
2022-11-29T21:57:33.158Z,8.27
2022-11-29T22:00:16.565Z,7.18
2022-11-29T22:02:58.124Z,5.66
2022-11-29T22:05:46.142Z,4.50
2022-11-29T22:08:20.814Z,3.78
2022-11-29T22:11:21.149Z,3.30
2022-11-29T22:14:20.296Z,2.87
2022-11-29T22:17:04.253Z,2.49
2022-11-29T22:19:48.351Z,3.46
2022-11-29T22:22:37.145Z,6.70
2022-11-29T22:25:11.570Z,8.25
2022-11-29T22:27:59.140Z,7.32
2022-11-29T22:30:33.554Z,5.79
2022-11-29T22:33:21.137Z,4.65
2022-11-29T22:35:55.569Z,3.91
2022-11-29T22:38:43.851Z,3.35
2022-11-29T22:41:18.878Z,2.94
2022-11-29T22:44:10.130Z,2.58
2022-11-29T22:46:51.495Z,2.28
2022-11-29T22:49:33.487Z,2.99
2022-11-29T22:52:15.219Z,6.29
2022-11-29T22:55:01.300Z,8.53
2022-11-29T22:57:46.123Z,8.31
2022-11-29T23:00:30.675Z,6.58
2022-11-29T23:03:12.455Z,5.33
2022-11-29T23:05:54.256Z,4.39
2022-11-29T23:08:36.334Z,3.78
2022-11-29T23:11:21.272Z,3.26
2022-11-29T23:14:02.336Z,2.84
2022-11-29T23:16:43.530Z,2.48
2022-11-29T23:19:26.145Z,2.46
2022-11-29T23:22:21.138Z,5.34
2022-11-29T23:25:02.548Z,7.84
2022-11-29T23:27:50.145Z,8.60
2022-11-29T23:30:24.596Z,7.16
2022-11-29T23:33:12.127Z,5.71
2022-11-29T23:35:53.124Z,4.71
2022-11-29T23:38:34.200Z,3.95
2022-11-29T23:41:17.132Z,3.44
2022-11-29T23:44:00.660Z,2.99
2022-11-29T23:46:43.138Z,2.66
2022-11-29T23:49:31.116Z,2.35
2022-11-29T23:52:05.523Z,2.90
2022-11-29T23:54:53.120Z,6.20
2022-11-29T23:57:30.290Z,8.31
